sensor_id;sensor_type;location;lat;lon;timestamp;P1;durP1;ratioP1;P2;durP2;ratioP2
19095;SDS011;9680;52.520;13.332;2023-07-29T00:01:03;10.57;;;6.40;;
19095;SDS011;9680;52.520;13.332;2023-07-29T00:03:29;9.65;;;6.00;;
19095;SDS011;9680;52.520;13.332;2023-07-29T00:05:57;9.57;;;5.50;;
19095;SDS011;9680;52.520;13.332;2023-07-29T00:08:24;11.45;;;6.20;;
19095;SDS011;9680;52.520;13.332;2023-07-29T00:10:50;12.60;;;6.57;;
19095;SDS011;9680;52.520;13.332;2023-07-29T00:13:19;10.77;;;5.30;;
19095;SDS011;9680;52.520;13.332;2023-07-29T00:15:45;8.45;;;5.47;;
19095;SDS011;9680;52.520;13.332;2023-07-29T00:18:12;9.07;;;5.90;;
19095;SDS011;9680;52.520;13.332;2023-07-29T00:20:39;9.98;;;5.55;;
19095;SDS011;9680;52.520;13.332;2023-07-29T00:23:06;8.85;;;5.32;;
19095;SDS011;9680;52.520;13.332;2023-07-29T00:25:32;11.93;;;5.70;;
19095;SDS011;9680;52.520;13.332;2023-07-29T00:27:59;12.63;;;6.05;;
19095;SDS011;9680;52.520;13.332;2023-07-29T00:30:27;9.45;;;5.65;;
19095;SDS011;9680;52.520;13.332;2023-07-29T00:32:54;9.00;;;5.70;;
19095;SDS011;9680;52.520;13.332;2023-07-29T00:35:21;12.27;;;5.93;;
19095;SDS011;9680;52.520;13.332;2023-07-29T00:37:47;10.95;;;5.93;;
19095;SDS011;9680;52.520;13.332;2023-07-29T00:40:15;9.93;;;5.45;;
19095;SDS011;9680;52.520;13.332;2023-07-29T00:42:47;10.48;;;5.78;;
19095;SDS011;9680;52.520;13.332;2023-07-29T00:45:13;12.50;;;6.10;;
19095;SDS011;9680;52.520;13.332;2023-07-29T00:47:41;14.63;;;6.20;;
19095;SDS011;9680;52.520;13.332;2023-07-29T00:50:09;11.80;;;5.97;;
19095;SDS011;9680;52.520;13.332;2023-07-29T00:52:38;10.45;;;5.90;;
19095;SDS011;9680;52.520;13.332;2023-07-29T00:55:05;10.90;;;5.88;;
19095;SDS011;9680;52.520;13.332;2023-07-29T00:57:33;13.55;;;5.85;;
19095;SDS011;9680;52.520;13.332;2023-07-29T01:00:01;10.75;;;6.05;;
19095;SDS011;9680;52.520;13.332;2023-07-29T01:02:29;8.93;;;5.93;;
19095;SDS011;9680;52.520;13.332;2023-07-29T01:04:59;9.35;;;6.35;;
19095;SDS011;9680;52.520;13.332;2023-07-29T01:07:27;11.15;;;6.50;;
19095;SDS011;9680;52.520;13.332;2023-07-29T01:10:00;9.18;;;5.93;;
19095;SDS011;9680;52.520;13.332;2023-07-29T01:12:33;10.57;;;6.57;;
19095;SDS011;9680;52.520;13.332;2023-07-29T01:15:09;8.90;;;5.78;;
19095;SDS011;9680;52.520;13.332;2023-07-29T01:17:43;10.20;;;6.43;;
19095;SDS011;9680;52.520;13.332;2023-07-29T01:20:15;9.35;;;6.15;;
19095;SDS011;9680;52.520;13.332;2023-07-29T01:22:45;11.75;;;6.45;;
19095;SDS011;9680;52.520;13.332;2023-07-29T01:25:13;13.25;;;6.78;;
19095;SDS011;9680;52.520;13.332;2023-07-29T01:27:41;11.55;;;6.10;;
19095;SDS011;9680;52.520;13.332;2023-07-29T01:30:08;10.25;;;5.78;;
19095;SDS011;9680;52.520;13.332;2023-07-29T01:32:37;10.82;;;6.38;;
19095;SDS011;9680;52.520;13.332;2023-07-29T01:35:15;10.98;;;6.05;;
19095;SDS011;9680;52.520;13.332;2023-07-29T01:37:47;10.05;;;6.25;;
19095;SDS011;9680;52.520;13.332;2023-07-29T01:40:19;11.07;;;6.28;;
19095;SDS011;9680;52.520;13.332;2023-07-29T01:42:48;12.30;;;6.82;;
19095;SDS011;9680;52.520;13.332;2023-07-29T01:45:15;13.85;;;6.38;;
19095;SDS011;9680;52.520;13.332;2023-07-29T01:47:42;11.48;;;6.47;;
19095;SDS011;9680;52.520;13.332;2023-07-29T01:50:09;10.63;;;6.70;;
19095;SDS011;9680;52.520;13.332;2023-07-29T01:52:36;12.90;;;6.75;;
19095;SDS011;9680;52.520;13.332;2023-07-29T01:55:03;9.95;;;6.05;;
19095;SDS011;9680;52.520;13.332;2023-07-29T01:57:31;11.82;;;5.78;;
19095;SDS011;9680;52.520;13.332;2023-07-29T01:59:58;16.60;;;6.95;;
19095;SDS011;9680;52.520;13.332;2023-07-29T02:02:25;10.07;;;6.32;;
19095;SDS011;9680;52.520;13.332;2023-07-29T02:04:52;12.10;;;6.50;;
19095;SDS011;9680;52.520;13.332;2023-07-29T02:07:21;10.95;;;6.93;;
19095;SDS011;9680;52.520;13.332;2023-07-29T02:09:47;12.00;;;6.50;;
19095;SDS011;9680;52.520;13.332;2023-07-29T02:12:14;12.20;;;6.80;;
19095;SDS011;9680;52.520;13.332;2023-07-29T02:14:42;12.43;;;6.43;;
19095;SDS011;9680;52.520;13.332;2023-07-29T02:17:09;10.20;;;6.30;;
19095;SDS011;9680;52.520;13.332;2023-07-29T02:19:35;10.80;;;6.28;;
19095;SDS011;9680;52.520;13.332;2023-07-29T02:22:03;14.93;;;7.28;;
19095;SDS011;9680;52.520;13.332;2023-07-29T02:24:29;11.00;;;6.15;;
19095;SDS011;9680;52.520;13.332;2023-07-29T02:26:56;13.77;;;6.43;;
19095;SDS011;9680;52.520;13.332;2023-07-29T02:29:23;10.30;;;5.97;;
19095;SDS011;9680;52.520;13.332;2023-07-29T02:31:51;14.65;;;6.10;;
19095;SDS011;9680;52.520;13.332;2023-07-29T02:34:21;9.40;;;5.88;;
19095;SDS011;9680;52.520;13.332;2023-07-29T02:36:52;9.05;;;5.97;;
19095;SDS011;9680;52.520;13.332;2023-07-29T02:39:20;12.10;;;6.32;;
19095;SDS011;9680;52.520;13.332;2023-07-29T02:41:51;11.95;;;6.95;;
19095;SDS011;9680;52.520;13.332;2023-07-29T02:44:20;11.73;;;6.05;;
19095;SDS011;9680;52.520;13.332;2023-07-29T02:46:59;10.23;;;6.18;;
19095;SDS011;9680;52.520;13.332;2023-07-29T02:49:50;9.52;;;6.13;;
19095;SDS011;9680;52.520;13.332;2023-07-29T02:52:21;10.70;;;6.05;;
19095;SDS011;9680;52.520;13.332;2023-07-29T02:54:51;10.32;;;6.53;;
19095;SDS011;9680;52.520;13.332;2023-07-29T02:57:20;11.10;;;6.35;;
19095;SDS011;9680;52.520;13.332;2023-07-29T02:59:47;11.02;;;6.38;;
19095;SDS011;9680;52.520;13.332;2023-07-29T03:02:18;10.25;;;6.60;;
19095;SDS011;9680;52.520;13.332;2023-07-29T03:04:49;12.35;;;6.75;;
19095;SDS011;9680;52.520;13.332;2023-07-29T03:07:21;10.90;;;6.55;;
19095;SDS011;9680;52.520;13.332;2023-07-29T03:09:51;13.60;;;6.57;;
19095;SDS011;9680;52.520;13.332;2023-07-29T03:12:22;12.25;;;7.05;;
19095;SDS011;9680;52.520;13.332;2023-07-29T03:14:52;11.85;;;6.80;;
19095;SDS011;9680;52.520;13.332;2023-07-29T03:17:23;13.55;;;7.00;;
19095;SDS011;9680;52.520;13.332;2023-07-29T03:19:49;14.77;;;7.07;;
19095;SDS011;9680;52.520;13.332;2023-07-29T03:22:17;11.52;;;6.80;;
19095;SDS011;9680;52.520;13.332;2023-07-29T03:24:54;13.25;;;6.80;;
19095;SDS011;9680;52.520;13.332;2023-07-29T03:27:30;14.45;;;7.07;;
19095;SDS011;9680;52.520;13.332;2023-07-29T03:29:57;11.38;;;6.53;;
19095;SDS011;9680;52.520;13.332;2023-07-29T03:32:28;14.30;;;6.80;;
19095;SDS011;9680;52.520;13.332;2023-07-29T03:34:55;11.98;;;6.82;;
19095;SDS011;9680;52.520;13.332;2023-07-29T03:37:21;13.80;;;6.32;;
19095;SDS011;9680;52.520;13.332;2023-07-29T03:39:54;10.27;;;6.57;;
19095;SDS011;9680;52.520;13.332;2023-07-29T03:42:23;12.32;;;6.45;;
19095;SDS011;9680;52.520;13.332;2023-07-29T03:44:52;14.32;;;6.22;;
19095;SDS011;9680;52.520;13.332;2023-07-29T03:47:22;15.90;;;6.70;;
19095;SDS011;9680;52.520;13.332;2023-07-29T03:49:55;13.13;;;7.15;;
19095;SDS011;9680;52.520;13.332;2023-07-29T03:52:39;12.07;;;6.72;;
19095;SDS011;9680;52.520;13.332;2023-07-29T03:55:14;11.95;;;6.47;;
19095;SDS011;9680;52.520;13.332;2023-07-29T03:57:44;10.48;;;6.85;;
19095;SDS011;9680;52.520;13.332;2023-07-29T04:00:21;11.77;;;6.75;;
19095;SDS011;9680;52.520;13.332;2023-07-29T04:02:51;11.68;;;6.95;;
19095;SDS011;9680;52.520;13.332;2023-07-29T04:05:24;11.55;;;6.95;;
19095;SDS011;9680;52.520;13.332;2023-07-29T04:07:52;12.32;;;6.80;;
19095;SDS011;9680;52.520;13.332;2023-07-29T04:10:19;12.15;;;6.45;;
19095;SDS011;9680;52.520;13.332;2023-07-29T04:12:46;13.15;;;6.93;;
19095;SDS011;9680;52.520;13.332;2023-07-29T04:15:16;12.65;;;7.13;;
19095;SDS011;9680;52.520;13.332;2023-07-29T04:17:42;12.75;;;6.78;;
19095;SDS011;9680;52.520;13.332;2023-07-29T04:20:10;10.82;;;6.60;;
19095;SDS011;9680;52.520;13.332;2023-07-29T04:22:38;10.68;;;6.65;;
19095;SDS011;9680;52.520;13.332;2023-07-29T04:25:06;19.15;;;7.13;;
19095;SDS011;9680;52.520;13.332;2023-07-29T04:27:33;10.48;;;6.53;;
19095;SDS011;9680;52.520;13.332;2023-07-29T04:30:00;10.90;;;6.75;;
19095;SDS011;9680;52.520;13.332;2023-07-29T04:32:26;11.45;;;6.25;;
19095;SDS011;9680;52.520;13.332;2023-07-29T04:34:53;10.95;;;7.28;;
19095;SDS011;9680;52.520;13.332;2023-07-29T04:37:20;10.23;;;6.47;;
19095;SDS011;9680;52.520;13.332;2023-07-29T04:39:48;11.00;;;6.72;;
19095;SDS011;9680;52.520;13.332;2023-07-29T04:42:15;10.57;;;6.20;;
19095;SDS011;9680;52.520;13.332;2023-07-29T04:44:42;9.05;;;5.90;;
19095;SDS011;9680;52.520;13.332;2023-07-29T04:47:09;11.45;;;6.30;;
19095;SDS011;9680;52.520;13.332;2023-07-29T04:49:36;10.45;;;6.47;;
19095;SDS011;9680;52.520;13.332;2023-07-29T04:52:03;9.70;;;6.13;;
19095;SDS011;9680;52.520;13.332;2023-07-29T04:54:30;9.38;;;6.20;;
19095;SDS011;9680;52.520;13.332;2023-07-29T04:56:58;9.93;;;6.22;;
19095;SDS011;9680;52.520;13.332;2023-07-29T04:59:26;8.40;;;5.80;;
19095;SDS011;9680;52.520;13.332;2023-07-29T05:01:53;11.55;;;6.10;;
19095;SDS011;9680;52.520;13.332;2023-07-29T05:04:20;8.40;;;5.65;;
19095;SDS011;9680;52.520;13.332;2023-07-29T05:06:47;8.75;;;5.70;;
19095;SDS011;9680;52.520;13.332;2023-07-29T05:09:14;8.73;;;5.80;;
19095;SDS011;9680;52.520;13.332;2023-07-29T05:11:42;8.98;;;5.57;;
19095;SDS011;9680;52.520;13.332;2023-07-29T05:14:12;8.88;;;6.03;;
19095;SDS011;9680;52.520;13.332;2023-07-29T05:16:39;8.90;;;5.95;;
19095;SDS011;9680;52.520;13.332;2023-07-29T05:19:06;9.27;;;5.70;;
19095;SDS011;9680;52.520;13.332;2023-07-29T05:21:33;9.45;;;5.90;;
19095;SDS011;9680;52.520;13.332;2023-07-29T05:24:01;11.25;;;6.43;;
19095;SDS011;9680;52.520;13.332;2023-07-29T05:26:28;8.60;;;5.53;;
19095;SDS011;9680;52.520;13.332;2023-07-29T05:28:55;9.93;;;5.85;;
19095;SDS011;9680;52.520;13.332;2023-07-29T05:31:23;8.65;;;5.88;;
19095;SDS011;9680;52.520;13.332;2023-07-29T05:33:50;10.90;;;5.72;;
19095;SDS011;9680;52.520;13.332;2023-07-29T05:36:17;11.20;;;5.65;;
19095;SDS011;9680;52.520;13.332;2023-07-29T05:38:44;10.75;;;6.00;;
19095;SDS011;9680;52.520;13.332;2023-07-29T05:41:11;8.85;;;6.00;;
19095;SDS011;9680;52.520;13.332;2023-07-29T05:43:37;8.60;;;5.65;;
19095;SDS011;9680;52.520;13.332;2023-07-29T05:46:05;8.60;;;5.68;;
19095;SDS011;9680;52.520;13.332;2023-07-29T05:48:33;8.88;;;5.60;;
19095;SDS011;9680;52.520;13.332;2023-07-29T05:51:02;9.98;;;6.00;;
19095;SDS011;9680;52.520;13.332;2023-07-29T05:53:30;9.10;;;5.70;;
19095;SDS011;9680;52.520;13.332;2023-07-29T05:55:57;9.98;;;5.75;;
19095;SDS011;9680;52.520;13.332;2023-07-29T05:58:24;9.25;;;5.80;;
19095;SDS011;9680;52.520;13.332;2023-07-29T06:00:51;8.85;;;5.53;;
19095;SDS011;9680;52.520;13.332;2023-07-29T06:03:18;7.97;;;5.03;;
19095;SDS011;9680;52.520;13.332;2023-07-29T06:05:46;10.90;;;6.47;;
19095;SDS011;9680;52.520;13.332;2023-07-29T06:08:15;8.23;;;5.50;;
19095;SDS011;9680;52.520;13.332;2023-07-29T06:10:41;10.43;;;5.65;;
19095;SDS011;9680;52.520;13.332;2023-07-29T06:13:08;8.95;;;5.05;;
19095;SDS011;9680;52.520;13.332;2023-07-29T06:15:35;8.15;;;5.53;;
19095;SDS011;9680;52.520;13.332;2023-07-29T06:18:02;8.60;;;4.45;;
19095;SDS011;9680;52.520;13.332;2023-07-29T06:20:29;6.93;;;4.65;;
19095;SDS011;9680;52.520;13.332;2023-07-29T06:22:57;7.88;;;5.18;;
19095;SDS011;9680;52.520;13.332;2023-07-29T06:25:24;8.80;;;5.20;;
19095;SDS011;9680;52.520;13.332;2023-07-29T06:27:50;7.13;;;4.82;;
19095;SDS011;9680;52.520;13.332;2023-07-29T06:30:17;6.72;;;4.57;;
19095;SDS011;9680;52.520;13.332;2023-07-29T06:32:44;8.43;;;4.70;;
19095;SDS011;9680;52.520;13.332;2023-07-29T06:35:10;7.15;;;4.60;;
19095;SDS011;9680;52.520;13.332;2023-07-29T06:37:37;11.02;;;4.53;;
19095;SDS011;9680;52.520;13.332;2023-07-29T06:40:06;10.02;;;4.55;;
19095;SDS011;9680;52.520;13.332;2023-07-29T06:42:33;6.05;;;4.28;;
19095;SDS011;9680;52.520;13.332;2023-07-29T06:45:02;6.82;;;4.68;;
19095;SDS011;9680;52.520;13.332;2023-07-29T06:47:30;7.10;;;4.63;;
19095;SDS011;9680;52.520;13.332;2023-07-29T06:49:57;6.60;;;4.60;;
19095;SDS011;9680;52.520;13.332;2023-07-29T06:52:23;5.45;;;4.05;;
19095;SDS011;9680;52.520;13.332;2023-07-29T06:54:50;7.35;;;4.20;;
19095;SDS011;9680;52.520;13.332;2023-07-29T06:57:18;6.88;;;4.30;;
19095;SDS011;9680;52.520;13.332;2023-07-29T06:59:45;6.45;;;3.88;;
19095;SDS011;9680;52.520;13.332;2023-07-29T07:02:12;8.93;;;4.82;;
19095;SDS011;9680;52.520;13.332;2023-07-29T07:04:39;5.68;;;4.20;;
19095;SDS011;9680;52.520;13.332;2023-07-29T07:07:06;7.20;;;4.22;;
19095;SDS011;9680;52.520;13.332;2023-07-29T07:09:32;9.30;;;4.55;;
19095;SDS011;9680;52.520;13.332;2023-07-29T07:11:59;7.15;;;4.60;;
19095;SDS011;9680;52.520;13.332;2023-07-29T07:14:30;8.07;;;4.43;;
19095;SDS011;9680;52.520;13.332;2023-07-29T07:16:56;6.90;;;4.45;;
19095;SDS011;9680;52.520;13.332;2023-07-29T07:19:23;10.38;;;4.57;;
19095;SDS011;9680;52.520;13.332;2023-07-29T07:21:50;5.40;;;4.13;;
19095;SDS011;9680;52.520;13.332;2023-07-29T07:24:17;8.02;;;5.88;;
19095;SDS011;9680;52.520;13.332;2023-07-29T07:26:43;7.65;;;5.50;;
19095;SDS011;9680;52.520;13.332;2023-07-29T07:29:10;8.35;;;5.45;;
19095;SDS011;9680;52.520;13.332;2023-07-29T07:31:38;9.05;;;5.60;;
19095;SDS011;9680;52.520;13.332;2023-07-29T07:34:05;7.53;;;4.65;;
19095;SDS011;9680;52.520;13.332;2023-07-29T07:36:32;5.82;;;4.82;;
19095;SDS011;9680;52.520;13.332;2023-07-29T07:38:59;8.23;;;5.20;;
19095;SDS011;9680;52.520;13.332;2023-07-29T07:41:25;9.35;;;4.97;;
19095;SDS011;9680;52.520;13.332;2023-07-29T07:43:52;7.63;;;5.00;;
19095;SDS011;9680;52.520;13.332;2023-07-29T07:46:19;6.32;;;4.30;;
19095;SDS011;9680;52.520;13.332;2023-07-29T07:48:47;6.30;;;4.60;;
19095;SDS011;9680;52.520;13.332;2023-07-29T07:51:14;10.45;;;4.78;;
19095;SDS011;9680;52.520;13.332;2023-07-29T07:53:41;6.47;;;4.72;;
19095;SDS011;9680;52.520;13.332;2023-07-29T07:56:07;8.05;;;4.40;;
19095;SDS011;9680;52.520;13.332;2023-07-29T07:58:34;5.57;;;4.35;;
19095;SDS011;9680;52.520;13.332;2023-07-29T08:01:01;6.43;;;4.65;;
19095;SDS011;9680;52.520;13.332;2023-07-29T08:03:29;5.53;;;4.20;;
19095;SDS011;9680;52.520;13.332;2023-07-29T08:05:57;4.47;;;3.65;;
19095;SDS011;9680;52.520;13.332;2023-07-29T08:08:25;5.35;;;4.13;;
19095;SDS011;9680;52.520;13.332;2023-07-29T08:10:52;5.05;;;3.78;;
19095;SDS011;9680;52.520;13.332;2023-07-29T08:13:19;6.45;;;4.43;;
19095;SDS011;9680;52.520;13.332;2023-07-29T08:15:46;7.72;;;4.50;;
19095;SDS011;9680;52.520;13.332;2023-07-29T08:18:13;4.95;;;3.60;;
19095;SDS011;9680;52.520;13.332;2023-07-29T08:20:40;5.93;;;3.85;;
19095;SDS011;9680;52.520;13.332;2023-07-29T08:23:08;4.57;;;3.60;;
19095;SDS011;9680;52.520;13.332;2023-07-29T08:25:35;6.50;;;3.65;;
19095;SDS011;9680;52.520;13.332;2023-07-29T08:28:02;5.65;;;4.10;;
19095;SDS011;9680;52.520;13.332;2023-07-29T08:30:30;7.57;;;3.95;;
19095;SDS011;9680;52.520;13.332;2023-07-29T08:32:57;5.32;;;3.65;;
19095;SDS011;9680;52.520;13.332;2023-07-29T08:35:23;4.65;;;3.28;;
19095;SDS011;9680;52.520;13.332;2023-07-29T08:37:50;4.05;;;3.40;;
19095;SDS011;9680;52.520;13.332;2023-07-29T08:40:18;5.53;;;3.22;;
19095;SDS011;9680;52.520;13.332;2023-07-29T08:42:53;6.53;;;3.30;;
19095;SDS011;9680;52.520;13.332;2023-07-29T08:45:24;4.40;;;3.15;;
19095;SDS011;9680;52.520;13.332;2023-07-29T08:47:52;6.95;;;3.75;;
19095;SDS011;9680;52.520;13.332;2023-07-29T08:50:24;8.18;;;3.60;;
19095;SDS011;9680;52.520;13.332;2023-07-29T08:52:51;4.32;;;2.92;;
19095;SDS011;9680;52.520;13.332;2023-07-29T08:55:20;4.88;;;3.40;;
19095;SDS011;9680;52.520;13.332;2023-07-29T08:57:47;4.78;;;3.22;;
19095;SDS011;9680;52.520;13.332;2023-07-29T09:00:14;4.57;;;3.20;;
19095;SDS011;9680;52.520;13.332;2023-07-29T09:02:41;4.03;;;3.20;;
19095;SDS011;9680;52.520;13.332;2023-07-29T09:05:08;3.60;;;2.97;;
19095;SDS011;9680;52.520;13.332;2023-07-29T09:07:35;6.20;;;4.00;;
19095;SDS011;9680;52.520;13.332;2023-07-29T09:10:08;4.82;;;2.92;;
19095;SDS011;9680;52.520;13.332;2023-07-29T09:12:37;9.30;;;3.45;;
19095;SDS011;9680;52.520;13.332;2023-07-29T09:15:06;7.38;;;3.72;;
19095;SDS011;9680;52.520;13.332;2023-07-29T09:17:36;5.22;;;3.25;;
19095;SDS011;9680;52.520;13.332;2023-07-29T09:20:03;4.25;;;3.10;;
19095;SDS011;9680;52.520;13.332;2023-07-29T09:22:30;3.83;;;2.80;;
19095;SDS011;9680;52.520;13.332;2023-07-29T09:24:57;3.47;;;2.72;;
19095;SDS011;9680;52.520;13.332;2023-07-29T09:27:24;5.22;;;2.90;;
19095;SDS011;9680;52.520;13.332;2023-07-29T09:29:53;3.42;;;2.70;;
19095;SDS011;9680;52.520;13.332;2023-07-29T09:32:20;4.18;;;2.95;;
19095;SDS011;9680;52.520;13.332;2023-07-29T09:34:48;4.28;;;2.80;;
19095;SDS011;9680;52.520;13.332;2023-07-29T09:37:15;4.43;;;2.97;;
19095;SDS011;9680;52.520;13.332;2023-07-29T09:39:46;3.72;;;2.60;;
19095;SDS011;9680;52.520;13.332;2023-07-29T09:42:17;3.15;;;2.72;;
19095;SDS011;9680;52.520;13.332;2023-07-29T09:44:45;4.28;;;3.05;;
19095;SDS011;9680;52.520;13.332;2023-07-29T09:47:20;5.15;;;2.83;;
19095;SDS011;9680;52.520;13.332;2023-07-29T09:49:48;3.53;;;2.88;;
19095;SDS011;9680;52.520;13.332;2023-07-29T09:52:15;4.72;;;3.10;;
19095;SDS011;9680;52.520;13.332;2023-07-29T09:54:42;4.05;;;2.85;;
19095;SDS011;9680;52.520;13.332;2023-07-29T09:57:10;3.67;;;2.72;;
19095;SDS011;9680;52.520;13.332;2023-07-29T09:59:37;3.47;;;2.80;;
19095;SDS011;9680;52.520;13.332;2023-07-29T10:02:04;4.88;;;2.88;;
19095;SDS011;9680;52.520;13.332;2023-07-29T10:04:34;4.32;;;2.70;;
19095;SDS011;9680;52.520;13.332;2023-07-29T10:07:01;4.40;;;2.58;;
19095;SDS011;9680;52.520;13.332;2023-07-29T10:09:28;3.90;;;2.80;;
19095;SDS011;9680;52.520;13.332;2023-07-29T10:11:55;2.63;;;2.38;;
19095;SDS011;9680;52.520;13.332;2023-07-29T10:14:23;3.38;;;2.30;;
19095;SDS011;9680;52.520;13.332;2023-07-29T10:16:52;3.72;;;2.60;;
19095;SDS011;9680;52.520;13.332;2023-07-29T10:19:19;2.70;;;2.40;;
19095;SDS011;9680;52.520;13.332;2023-07-29T10:21:47;4.40;;;2.60;;
19095;SDS011;9680;52.520;13.332;2023-07-29T10:24:15;5.47;;;3.80;;
19095;SDS011;9680;52.520;13.332;2023-07-29T10:26:47;3.15;;;2.65;;
19095;SDS011;9680;52.520;13.332;2023-07-29T10:29:16;4.47;;;2.58;;
19095;SDS011;9680;52.520;13.332;2023-07-29T10:31:46;4.90;;;2.72;;
19095;SDS011;9680;52.520;13.332;2023-07-29T10:34:18;3.20;;;2.58;;
19095;SDS011;9680;52.520;13.332;2023-07-29T10:36:49;3.00;;;2.38;;
19095;SDS011;9680;52.520;13.332;2023-07-29T10:39:17;3.80;;;2.10;;
19095;SDS011;9680;52.520;13.332;2023-07-29T10:41:57;3.20;;;2.50;;
19095;SDS011;9680;52.520;13.332;2023-07-29T10:47:19;2.60;;;2.20;;
19095;SDS011;9680;52.520;13.332;2023-07-29T10:49:49;2.80;;;2.28;;
19095;SDS011;9680;52.520;13.332;2023-07-29T10:52:29;5.13;;;2.30;;
19095;SDS011;9680;52.520;13.332;2023-07-29T10:54:57;3.03;;;2.40;;
19095;SDS011;9680;52.520;13.332;2023-07-29T10:57:31;3.10;;;2.30;;
19095;SDS011;9680;52.520;13.332;2023-07-29T10:59:58;2.50;;;2.13;;
19095;SDS011;9680;52.520;13.332;2023-07-29T11:02:29;2.95;;;2.38;;
19095;SDS011;9680;52.520;13.332;2023-07-29T11:05:04;5.35;;;2.40;;
19095;SDS011;9680;52.520;13.332;2023-07-29T11:07:44;2.67;;;2.15;;
19095;SDS011;9680;52.520;13.332;2023-07-29T11:10:11;3.40;;;2.22;;
19095;SDS011;9680;52.520;13.332;2023-07-29T11:12:40;6.15;;;2.17;;
19095;SDS011;9680;52.520;13.332;2023-07-29T11:15:13;6.10;;;1.60;;
19095;SDS011;9680;52.520;13.332;2023-07-29T11:17:45;5.65;;;1.13;;
19095;SDS011;9680;52.520;13.332;2023-07-29T11:20:13;2.38;;;0.68;;
19095;SDS011;9680;52.520;13.332;2023-07-29T11:22:41;1.58;;;0.80;;
19095;SDS011;9680;52.520;13.332;2023-07-29T11:25:10;2.45;;;0.95;;
19095;SDS011;9680;52.520;13.332;2023-07-29T11:27:38;2.53;;;0.90;;
19095;SDS011;9680;52.520;13.332;2023-07-29T11:30:08;1.83;;;0.68;;
19095;SDS011;9680;52.520;13.332;2023-07-29T11:32:36;1.25;;;0.73;;
19095;SDS011;9680;52.520;13.332;2023-07-29T11:35:04;1.15;;;0.80;;
19095;SDS011;9680;52.520;13.332;2023-07-29T11:37:32;1.45;;;0.90;;
19095;SDS011;9680;52.520;13.332;2023-07-29T11:39:59;2.25;;;1.00;;
19095;SDS011;9680;52.520;13.332;2023-07-29T11:42:31;2.85;;;1.08;;
19095;SDS011;9680;52.520;13.332;2023-07-29T11:44:59;2.80;;;1.20;;
19095;SDS011;9680;52.520;13.332;2023-07-29T11:47:26;2.92;;;1.30;;
19095;SDS011;9680;52.520;13.332;2023-07-29T11:49:57;2.05;;;1.30;;
19095;SDS011;9680;52.520;13.332;2023-07-29T11:52:25;6.13;;;1.00;;
19095;SDS011;9680;52.520;13.332;2023-07-29T11:54:53;1.85;;;0.90;;
19095;SDS011;9680;52.520;13.332;2023-07-29T11:57:20;2.53;;;1.10;;
19095;SDS011;9680;52.520;13.332;2023-07-29T11:59:48;3.83;;;1.60;;
19095;SDS011;9680;52.520;13.332;2023-07-29T12:02:16;3.17;;;1.40;;
19095;SDS011;9680;52.520;13.332;2023-07-29T12:04:46;2.38;;;1.40;;
19095;SDS011;9680;52.520;13.332;2023-07-29T12:07:14;4.28;;;1.40;;
19095;SDS011;9680;52.520;13.332;2023-07-29T12:09:43;4.72;;;1.45;;
19095;SDS011;9680;52.520;13.332;2023-07-29T12:12:11;2.65;;;1.60;;
19095;SDS011;9680;52.520;13.332;2023-07-29T12:14:38;4.53;;;1.67;;
19095;SDS011;9680;52.520;13.332;2023-07-29T12:17:06;6.03;;;1.92;;
19095;SDS011;9680;52.520;13.332;2023-07-29T12:19:36;3.13;;;1.70;;
19095;SDS011;9680;52.520;13.332;2023-07-29T12:22:05;3.50;;;1.80;;
19095;SDS011;9680;52.520;13.332;2023-07-29T12:24:33;3.40;;;1.40;;
19095;SDS011;9680;52.520;13.332;2023-07-29T12:27:01;4.22;;;1.80;;
19095;SDS011;9680;52.520;13.332;2023-07-29T12:29:28;2.35;;;1.30;;
19095;SDS011;9680;52.520;13.332;2023-07-29T12:31:58;2.25;;;1.30;;
19095;SDS011;9680;52.520;13.332;2023-07-29T12:34:28;4.90;;;1.90;;
19095;SDS011;9680;52.520;13.332;2023-07-29T12:36:57;4.20;;;1.83;;
19095;SDS011;9680;52.520;13.332;2023-07-29T12:39:25;3.47;;;1.52;;
19095;SDS011;9680;52.520;13.332;2023-07-29T12:41:53;3.20;;;1.50;;
19095;SDS011;9680;52.520;13.332;2023-07-29T12:44:22;3.78;;;2.17;;
19095;SDS011;9680;52.520;13.332;2023-07-29T12:46:49;4.13;;;2.45;;
19095;SDS011;9680;52.520;13.332;2023-07-29T12:49:16;4.38;;;2.42;;
19095;SDS011;9680;52.520;13.332;2023-07-29T12:51:45;4.00;;;2.78;;
19095;SDS011;9680;52.520;13.332;2023-07-29T12:54:11;4.22;;;2.85;;
19095;SDS011;9680;52.520;13.332;2023-07-29T12:56:38;4.10;;;3.05;;
19095;SDS011;9680;52.520;13.332;2023-07-29T12:59:06;4.75;;;2.95;;
19095;SDS011;9680;52.520;13.332;2023-07-29T13:01:33;4.28;;;2.92;;
19095;SDS011;9680;52.520;13.332;2023-07-29T13:04:00;4.15;;;3.28;;
19095;SDS011;9680;52.520;13.332;2023-07-29T13:06:27;4.75;;;3.63;;
19095;SDS011;9680;52.520;13.332;2023-07-29T13:08:55;4.65;;;3.35;;
19095;SDS011;9680;52.520;13.332;2023-07-29T13:11:22;4.13;;;2.67;;
19095;SDS011;9680;52.520;13.332;2023-07-29T13:13:49;4.65;;;3.33;;
19095;SDS011;9680;52.520;13.332;2023-07-29T13:16:16;4.15;;;3.40;;
19095;SDS011;9680;52.520;13.332;2023-07-29T13:18:42;5.95;;;3.50;;
19095;SDS011;9680;52.520;13.332;2023-07-29T13:21:10;6.35;;;3.10;;
19095;SDS011;9680;52.520;13.332;2023-07-29T13:23:36;4.53;;;3.15;;
19095;SDS011;9680;52.520;13.332;2023-07-29T13:26:04;5.45;;;3.20;;
19095;SDS011;9680;52.520;13.332;2023-07-29T13:28:31;5.07;;;3.13;;
19095;SDS011;9680;52.520;13.332;2023-07-29T13:30:58;4.65;;;3.00;;
19095;SDS011;9680;52.520;13.332;2023-07-29T13:33:25;3.78;;;2.78;;
19095;SDS011;9680;52.520;13.332;2023-07-29T13:35:52;4.50;;;2.90;;
19095;SDS011;9680;52.520;13.332;2023-07-29T13:38:19;3.70;;;2.80;;
19095;SDS011;9680;52.520;13.332;2023-07-29T13:40:47;3.80;;;3.10;;
19095;SDS011;9680;52.520;13.332;2023-07-29T13:43:17;3.60;;;2.15;;
19095;SDS011;9680;52.520;13.332;2023-07-29T13:45:44;3.15;;;1.90;;
19095;SDS011;9680;52.520;13.332;2023-07-29T13:48:13;1.95;;;1.67;;
19095;SDS011;9680;52.520;13.332;2023-07-29T13:50:40;2.55;;;2.10;;
19095;SDS011;9680;52.520;13.332;2023-07-29T13:53:09;2.88;;;2.00;;
19095;SDS011;9680;52.520;13.332;2023-07-29T13:55:36;2.60;;;2.10;;
19095;SDS011;9680;52.520;13.332;2023-07-29T13:58:02;2.60;;;2.17;;
19095;SDS011;9680;52.520;13.332;2023-07-29T14:00:31;2.28;;;1.50;;
19095;SDS011;9680;52.520;13.332;2023-07-29T14:02:58;3.10;;;1.60;;
19095;SDS011;9680;52.520;13.332;2023-07-29T14:05:27;2.22;;;1.45;;
19095;SDS011;9680;52.520;13.332;2023-07-29T14:07:53;2.42;;;1.90;;
19095;SDS011;9680;52.520;13.332;2023-07-29T14:10:20;4.43;;;1.83;;
19095;SDS011;9680;52.520;13.332;2023-07-29T14:12:47;1.95;;;1.65;;
19095;SDS011;9680;52.520;13.332;2023-07-29T14:15:14;2.88;;;1.77;;
19095;SDS011;9680;52.520;13.332;2023-07-29T14:17:43;2.53;;;1.70;;
19095;SDS011;9680;52.520;13.332;2023-07-29T14:20:10;1.90;;;1.60;;
19095;SDS011;9680;52.520;13.332;2023-07-29T14:22:37;2.47;;;1.60;;
19095;SDS011;9680;52.520;13.332;2023-07-29T14:25:04;2.58;;;1.70;;
19095;SDS011;9680;52.520;13.332;2023-07-29T14:27:34;3.22;;;1.67;;
19095;SDS011;9680;52.520;13.332;2023-07-29T14:30:00;2.15;;;1.67;;
19095;SDS011;9680;52.520;13.332;2023-07-29T14:32:27;2.35;;;1.50;;
19095;SDS011;9680;52.520;13.332;2023-07-29T14:34:56;2.05;;;1.45;;
19095;SDS011;9680;52.520;13.332;2023-07-29T14:37:22;1.70;;;1.38;;
19095;SDS011;9680;52.520;13.332;2023-07-29T14:39:49;3.47;;;1.50;;
19095;SDS011;9680;52.520;13.332;2023-07-29T14:42:16;1.60;;;1.30;;
19095;SDS011;9680;52.520;13.332;2023-07-29T14:44:43;5.25;;;1.40;;
19095;SDS011;9680;52.520;13.332;2023-07-29T14:47:10;2.10;;;1.20;;
19095;SDS011;9680;52.520;13.332;2023-07-29T14:49:36;1.25;;;1.15;;
19095;SDS011;9680;52.520;13.332;2023-07-29T14:52:05;1.40;;;1.20;;